Terminal Aerodrome Forecast
Issued by NWS Greer, SC

Home | Current Version | Previous Version | Text Only | Print | Product List | Glossary On
Versions: 1 2 3 4 5 6 7 8 9 10 11 12 13 14 15 16 17 18 19
000
FTUS42 KGSP 260535
TAFGSP
TAF
KGSP 260535Z 2606/2706 00000KT 3SM BR SCT006 BKN010 OVC025
      TEMPO 2606/2610 00000KT 1/2SM FG OVC004
     FM261000 00000KT 1 1/2SM BR BKN005
     FM261200 26003KT 5SM BR BKN015
     FM261400 28008KT P6SM BKN070
     FM262100 04003KT P6SM BKN060=

USA.gov is the U.S. government's official web portal to all federal, state and local government web resources and services.